aviador You're here:

LFPO Decoded Metar

PARIS ORLY in FRANCE
Report Time2017-11-20 23:00:00
UTC Time2017-11-20 23:06:40
Flight Rules mvfr MVFR
Wind230° at 05 kt
W.Decomp.*RWY 24: 4.9 kt HW 0.8 kt LCW
RWY 26: 4.4 kt HW 2.4 kt LCW
RWY 20: 4.3 kt HW 2.6 kt RCW
W.Rank230° ranks 1
Current wind is below 230° avg. (8.1)
Visibility9999 m
Phenomena:N/A
Clouds:Broken 013 Hf
Expected CloudBase > 800 ft AGL from Temp-Dew spread
Ceiling1,300 ft
Temp08°C (ISA -6)
Dew Point06°C (87% RH)
AAT5.3°C
QNH1019 hPa
Density Alt-525 ft
Elevation315 ft
Report Wrong Elevation
Raw Report
METAR LFPO 202300Z 23005KT 9999 BKN013 08/06 Q1019 NOSIG=

Extra information for LFPO:More info

Metar Taf Metar & Taf Last 4 Metars F.Rules Stats Wind Profile Meteogram Temp Stats Airport Information Weather charts Add Link Nearby VenuesMetar ALERT Operation Metar Decoded Social comments